Time;durP1;ratioP1;P1;durP2;ratioP2;P2;SDS_P1;SDS_P2;PMS_P1;PMS_P2;Temp;Humidity;BMP_temperature;BMP_pressure;BME280_temperature;BME280_humidity;BME280_pressure;Samples;Min_cycle;Max_cycle;Signal;HPM_P1;HPM_P2
2023/10/04 00:00:19;;;;;;;;;;;;;;;13.09;66.66;100179.25;5084204;28;19984;-68
2023/10/04 00:02:45;;;;;;;;;;;;;;;13.43;64.94;100174.69;5071152;28;19921;-68
2023/10/04 00:05:15;;;;;;;;;;;;;;;12.90;67.11;100161.63;5072082;28;19951;-68
2023/10/04 00:07:41;;;;;;;;;;;;;;;12.78;68.57;100156.69;5073257;28;19935;-68
2023/10/04 00:10:07;;;;;;;;;;;;;;;12.40;70.19;100160.22;5084060;28;19942;-68
2023/10/04 00:12:32;;;;;;;;;;;;;;;12.41;70.82;100153.44;5092152;28;20644;-68
2023/10/04 00:14:57;;;;;;;;;;;;;;;12.68;69.77;100143.03;5082189;28;19916;-68
2023/10/04 00:17:23;;;;;;;;;;;;;;;12.56;69.77;100148.50;5070536;28;20314;-68
2023/10/04 00:19:48;;;;;;;;;;;;;;;12.36;69.87;100143.22;5085830;28;20015;-68
2023/10/04 00:22:13;;;;;;;;;;;;;;;12.49;69.35;100149.81;5072778;28;20353;-69
2023/10/04 00:24:39;;;;;;;;;;;;;;;12.52;69.14;100147.50;5092045;28;20314;-68
2023/10/04 00:27:04;;;;;;;;;;;;;;;12.35;69.53;100146.38;5073794;28;19956;-68
2023/10/04 00:29:30;;;;;;;;;;;;;;;12.36;69.10;100153.63;5090062;28;20398;-68
2023/10/04 00:31:56;;;;;;;;;;;;;;;12.26;68.61;100142.72;5076139;28;19946;-68
2023/10/04 00:34:22;;;;;;;;;;;;;;;12.09;68.44;100144.38;5071177;28;19948;-68
2023/10/04 00:36:48;;;;;;;;;;;;;;;11.93;68.80;100136.41;5071689;28;19919;-68
2023/10/04 00:39:13;;;;;;;;;;;;;;;11.88;69.36;100144.97;5070539;28;19916;-68
2023/10/04 00:41:40;;;;;;;;;;;;;;;11.96;69.64;100140.53;5071620;28;20280;-68
2023/10/04 00:44:07;;;;;;;;;;;;;;;11.80;69.85;100135.41;5071714;28;19966;-68
2023/10/04 00:46:35;;;;;;;;;;;;;;;11.80;70.50;100135.41;5082644;28;19923;-68
2023/10/04 00:49:02;;;;;;;;;;;;;;;11.60;71.66;100142.47;5089823;28;19920;-68
2023/10/04 00:51:35;;;;;;;;;;;;;;;11.77;71.29;100143.66;5091744;28;19995;-68
2023/10/04 00:54:01;;;;;;;;;;;;;;;11.73;71.25;100145.47;5082117;28;20042;-68
2023/10/04 00:56:28;;;;;;;;;;;;;;;11.53;72.10;100139.31;5070241;28;19919;-68
2023/10/04 00:58:55;;;;;;;;;;;;;;;11.44;72.73;100138.44;5086362;28;19982;-69
2023/10/04 01:01:20;;;;;;;;;;;;;;;11.66;71.56;100141.16;5091456;28;20314;-68
2023/10/04 01:03:46;;;;;;;;;;;;;;;11.76;70.74;100130.78;5074010;28;19921;-68
2023/10/04 01:06:12;;;;;;;;;;;;;;;11.68;70.70;100140.84;5075373;28;19916;-68
2023/10/04 01:08:39;;;;;;;;;;;;;;;11.59;70.90;100135.22;5071268;28;19912;-68
2023/10/04 01:11:06;;;;;;;;;;;;;;;11.65;71.44;100144.28;5088217;28;19916;-69
2023/10/04 01:13:32;;;;;;;;;;;;;;;11.39;72.16;100145.03;5091594;28;20287;-69
2023/10/04 01:15:59;;;;;;;;;;;;;;;11.36;72.49;100140.06;5079278;28;19995;-68
2023/10/04 01:18:27;;;;;;;;;;;;;;;11.26;73.31;100145.97;5073764;28;19919;-68
2023/10/04 01:20:53;;;;;;;;;;;;;;;11.28;73.26;100144.50;5089656;28;19916;-68
2023/10/04 01:23:19;;;;;;;;;;;;;;;11.11;74.12;100147.22;5087667;28;20074;-68
2023/10/04 01:25:46;;;;;;;;;;;;;;;11.25;73.78;100139.53;5091549;28;19919;-68
2023/10/04 01:28:12;;;;;;;;;;;;;;;10.86;75.67;100150.38;5091011;28;19916;-68
2023/10/04 01:30:39;;;;;;;;;;;;;;;10.53;77.02;100142.28;5080481;28;19920;-68
2023/10/04 01:33:07;;;;;;;;;;;;;;;10.80;75.53;100152.50;5070621;28;20007;-69
2023/10/04 01:35:33;;;;;;;;;;;;;;;10.97;75.52;100148.13;5069359;28;19917;-68
2023/10/04 01:37:59;;;;;;;;;;;;;;;10.90;75.40;100147.78;5080524;28;19923;-68
2023/10/04 01:40:31;;;;;;;;;;;;;;;10.84;75.48;100149.03;5095075;28;19916;-68
2023/10/04 01:42:57;;;;;;;;;;;;;;;11.00;74.79;100147.50;5092449;28;19916;-68
2023/10/04 01:45:22;;;;;;;;;;;;;;;11.19;73.97;100147.25;5091489;28;19916;-68
2023/10/04 01:47:49;;;;;;;;;;;;;;;11.04;74.70;100142.06;5091937;28;20390;-68
2023/10/04 01:50:15;;;;;;;;;;;;;;;11.14;74.27;100135.38;5091704;28;20006;-68
2023/10/04 01:52:49;;;;;;;;;;;;;;;11.25;74.20;100147.94;5090829;28;19916;-68
2023/10/04 01:55:16;;;;;;;;;;;;;;;11.30;73.00;100145.00;5074589;28;19908;-68
2023/10/04 01:57:43;;;;;;;;;;;;;;;11.16;73.48;100138.69;5076593;28;20034;-68
2023/10/04 02:00:20;;;;;;;;;;;;;;;11.06;74.34;100143.41;5088217;28;20361;-68
2023/10/04 02:02:48;;;;;;;;;;;;;;;11.13;73.97;100136.53;5088224;28;19916;-68
2023/10/04 02:05:19;;;;;;;;;;;;;;;11.07;73.77;100138.66;5094638;28;19965;-68
2023/10/04 02:07:44;;;;;;;;;;;;;;;10.67;75.17;100143.00;5094762;28;20314;-68
2023/10/04 02:10:11;;;;;;;;;;;;;;;10.69;75.00;100137.13;5094438;28;19973;-68
2023/10/04 02:12:36;;;;;;;;;;;;;;;10.53;76.14;100145.91;5094534;28;19913;-68
2023/10/04 02:15:02;;;;;;;;;;;;;;;10.58;75.59;100141.31;5077664;28;19966;-68
2023/10/04 02:17:29;;;;;;;;;;;;;;;10.74;75.01;100148.19;5074077;28;19984;-68
2023/10/04 02:19:54;;;;;;;;;;;;;;;10.76;75.05;100147.84;5089606;28;19912;-68
2023/10/04 02:22:19;;;;;;;;;;;;;;;10.38;76.57;100140.66;5074403;28;19913;-68
2023/10/04 02:24:45;;;;;;;;;;;;;;;10.37;76.67;100144.59;5094243;28;19969;-68
2023/10/04 02:27:11;;;;;;;;;;;;;;;10.36;76.35;100143.78;5094313;28;19994;-68
2023/10/04 02:29:39;;;;;;;;;;;;;;;10.30;76.97;100145.03;5090033;28;19920;-68
2023/10/04 02:32:09;;;;;;;;;;;;;;;10.23;77.01;100141.88;5080025;28;19916;-68
2023/10/04 02:34:41;;;;;;;;;;;;;;;10.38;76.52;100144.28;5093715;28;19924;-68
2023/10/04 02:37:06;;;;;;;;;;;;;;;10.46;77.01;100142.72;5094061;28;19969;-69
2023/10/04 02:39:38;;;;;;;;;;;;;;;10.53;76.37;100142.28;5090656;28;19951;-68
2023/10/04 02:42:09;;;;;;;;;;;;;;;10.43;77.47;100139.72;5075298;28;20307;-69
2023/10/04 02:44:34;;;;;;;;;;;;;;;10.47;77.12;100140.75;5081860;28;20303;-68
2023/10/04 02:47:01;;;;;;;;;;;;;;;10.21;78.10;100146.94;5076552;28;19916;-68
2023/10/04 02:49:29;;;;;;;;;;;;;;;10.06;79.07;100143.34;5092558;28;20449;-68
2023/10/04 02:51:54;;;;;;;;;;;;;;;9.75;79.59;100140.41;5092473;28;20011;-68
2023/10/04 02:54:20;;;;;;;;;;;;;;;9.93;80.14;100142.25;5076056;28;19917;-69
2023/10/04 02:56:50;;;;;;;;;;;;;;;9.96;80.03;100140.81;5075146;28;19923;-68
2023/10/04 02:59:16;;;;;;;;;;;;;;;9.93;80.53;100139.47;5071791;28;19928;-68
2023/10/04 03:01:42;;;;;;;;;;;;;;;9.90;81.05;100136.47;5071794;28;19924;-68
2023/10/04 03:04:09;;;;;;;;;;;;;;;9.90;81.33;100142.06;5073524;28;20369;-69
2023/10/04 03:06:34;;;;;;;;;;;;;;;9.96;82.05;100144.41;5093229;28;19969;-68
2023/10/04 03:09:00;;;;;;;;;;;;;;;9.92;82.13;100143.41;5093292;28;19988;-68
2023/10/04 03:11:27;;;;;;;;;;;;;;;9.98;81.93;100142.13;5088830;28;19923;-68
2023/10/04 03:13:52;;;;;;;;;;;;;;;9.83;82.97;100134.94;5092546;28;19916;-68
2023/10/04 03:16:20;;;;;;;;;;;;;;;9.91;82.52;100144.53;5088772;28;20480;-68
2023/10/04 03:18:46;;;;;;;;;;;;;;;9.89;82.58;100143.19;5091893;28;19916;-68
2023/10/04 03:21:20;;;;;;;;;;;;;;;9.89;82.30;100144.00;5090139;28;19919;-68
2023/10/04 03:23:45;;;;;;;;;;;;;;;10.16;81.03;100139.50;5080446;28;20318;-68
2023/10/04 03:26:14;;;;;;;;;;;;;;;10.42;79.79;100147.31;5072231;28;19917;-69
2023/10/04 03:28:40;;;;;;;;;;;;;;;10.29;79.81;100145.38;5072779;28;20007;-68
2023/10/04 03:31:14;;;;;;;;;;;;;;;10.25;79.64;100145.97;5077380;28;20018;-69
2023/10/04 03:33:39;;;;;;;;;;;;;;;10.27;79.71;100140.06;5092548;28;19916;-68
2023/10/04 03:36:04;;;;;;;;;;;;;;;10.25;79.49;100145.97;5089104;28;20292;-68
2023/10/04 03:38:33;;;;;;;;;;;;;;;10.14;79.43;100141.78;5090609;28;19916;-68
2023/10/04 03:40:58;;;;;;;;;;;;;;;10.16;79.52;100139.50;5091688;28;19923;-68
2023/10/04 03:43:24;;;;;;;;;;;;;;;10.09;80.25;100147.50;5084132;28;19916;-68
2023/10/04 03:45:50;;;;;;;;;;;;;;;9.86;80.96;100143.84;5078602;28;20439;-69
2023/10/04 03:48:15;;;;;;;;;;;;;;;9.51;83.15;100145.13;5079326;28;19954;-68
2023/10/04 03:50:48;;;;;;;;;;;;;;;9.40;83.02;100138.91;5092473;28;19916;-68
2023/10/04 03:53:13;;;;;;;;;;;;;;;9.65;82.62;100142.31;5084293;28;20452;-76
2023/10/04 03:55:39;;;;;;;;;;;;;;;9.60;82.41;100145.22;5072293;28;19920;-76
2023/10/04 03:58:04;;;;;;;;;;;;;;;9.64;81.46;100137.03;5072433;28;19916;-76
2023/10/04 04:00:32;;;;;;;;;;;;;;;9.76;80.41;100137.31;5080432;28;19921;-75
2023/10/04 04:03:00;;;;;;;;;;;;;;;9.63;80.46;100133.41;5079471;28;20015;-75
2023/10/04 04:05:25;;;;;;;;;;;;;;;9.77;80.65;100135.34;5083124;28;19951;-76
2023/10/04 04:07:52;;;;;;;;;;;;;;;9.67;80.29;100131.66;5084127;28;20386;-76
2023/10/04 04:10:19;;;;;;;;;;;;;;;9.69;80.86;100132.16;5072005;28;19958;-76
2023/10/04 04:12:46;;;;;;;;;;;;;;;9.67;80.30;100134.44;5072796;28;19917;-76
2023/10/04 04:15:15;;;;;;;;;;;;;;;9.49;80.85;100132.59;5074267;28;20007;-76
2023/10/04 04:17:41;;;;;;;;;;;;;;;9.75;80.46;100132.88;5075020;28;20322;-76
2023/10/04 04:20:16;;;;;;;;;;;;;;;9.71;80.11;100133.81;5072636;28;20378;-75
2023/10/04 04:22:53;;;;;;;;;;;;;;;9.68;80.91;100124.94;5088901;28;19916;-76
2023/10/04 04:25:19;;;;;;;;;;;;;;;9.72;81.90;100127.09;5075248;28;19916;-72
2023/10/04 04:27:45;;;;;;;;;;;;;;;9.72;81.71;100129.88;5072797;28;20013;-71
2023/10/04 04:30:19;;;;;;;;;;;;;;;9.78;81.08;100128.66;5074526;28;19956;-72
2023/10/04 04:32:48;;;;;;;;;;;;;;;9.64;81.81;100123.06;5078722;28;20379;-73
2023/10/04 04:35:22;;;;;;;;;;;;;;;9.75;82.09;100120.88;5079333;28;19920;-72
2023/10/04 04:37:48;;;;;;;;;;;;;;;9.69;82.42;100123.78;5088815;28;19919;-75
2023/10/04 04:40:17;;;;;;;;;;;;;;;9.64;82.81;100125.88;5076242;28;20454;-74
2023/10/04 04:42:47;;;;;;;;;;;;;;;9.72;83.05;100129.88;5080924;28;19978;-73
2023/10/04 04:45:12;;;;;;;;;;;;;;;9.74;83.26;100130.38;5070476;28;19931;-69
2023/10/04 04:47:40;;;;;;;;;;;;;;;9.79;82.69;100133.91;5076983;28;19978;-75
2023/10/04 04:50:06;;;;;;;;;;;;;;;9.72;83.12;100132.69;5067734;28;19924;-76
2023/10/04 04:52:33;;;;;;;;;;;;;;;9.75;83.10;100137.63;5069971;28;19912;-75
2023/10/04 04:54:58;;;;;;;;;;;;;;;9.67;83.83;100140.03;5082055;28;19923;-77
2023/10/04 04:57:23;;;;;;;;;;;;;;;9.71;83.52;100139.41;5084022;28;20430;-74
2023/10/04 04:59:55;;;;;;;;;;;;;;;9.60;84.34;100147.19;5075536;28;19923;-75
2023/10/04 05:02:20;;;;;;;;;;;;;;;9.83;84.21;100143.31;5068428;28;19920;-76
2023/10/04 05:04:45;;;;;;;;;;;;;;;9.71;83.97;100145.00;5070958;28;19943;-77
2023/10/04 05:07:12;;;;;;;;;;;;;;;9.83;84.11;100148.06;5070247;28;19917;-76
2023/10/04 05:09:37;;;;;;;;;;;;;;;9.91;83.72;100152.94;5070726;28;20409;-76
2023/10/04 05:12:02;;;;;;;;;;;;;;;10.15;82.58;100157.41;5082237;28;19916;-77
2023/10/04 05:14:28;;;;;;;;;;;;;;;10.21;82.74;100158.13;5076671;28;20303;-76
2023/10/04 05:16:54;;;;;;;;;;;;;;;10.28;83.17;100152.09;5074713;28;20383;-76
2023/10/04 05:19:19;;;;;;;;;;;;;;;10.19;84.19;100150.06;5074692;28;19916;-76
2023/10/04 05:21:45;;;;;;;;;;;;;;;10.23;83.25;100156.66;5074704;28;19912;-75
2023/10/04 05:24:10;;;;;;;;;;;;;;;10.29;83.00;100157.34;5075216;28;20356;-76
2023/10/04 05:26:37;;;;;;;;;;;;;;;10.38;82.40;100151.84;5078983;28;19920;-76
2023/10/04 05:29:03;;;;;;;;;;;;;;;10.57;81.65;100156.44;5090524;28;19920;-76
2023/10/04 05:31:28;;;;;;;;;;;;;;;10.70;81.25;100163.94;5082051;28;19944;-75
2023/10/04 05:33:53;;;;;;;;;;;;;;;10.69;81.42;100161.47;5084135;28;20039;-75
2023/10/04 05:36:19;;;;;;;;;;;;;;;10.55;82.34;100169.94;5088206;28;19916;-75
2023/10/04 05:38:44;;;;;;;;;;;;;;;10.90;80.68;100172.97;5084725;28;19924;-75
2023/10/04 05:41:10;;;;;;;;;;;;;;;10.89;80.77;100172.13;5081883;28;20302;-74
2023/10/04 05:43:35;;;;;;;;;;;;;;;11.03;80.05;100169.25;5082731;28;19916;-73
2023/10/04 05:46:00;;;;;;;;;;;;;;;11.18;80.23;100169.97;5073879;28;20365;-74
2023/10/04 05:48:26;;;;;;;;;;;;;;;11.35;79.65;100172.88;5086617;28;20011;-71
2023/10/04 05:50:54;;;;;;;;;;;;;;;11.58;78.58;100164.34;5084729;28;19926;-72
2023/10/04 05:53:20;;;;;;;;;;;;;;;11.64;77.90;100165.03;5086559;28;20398;-72
2023/10/04 05:55:45;;;;;;;;;;;;;;;11.68;77.71;100165.22;5081034;28;19920;-70
2023/10/04 05:58:10;;;;;;;;;;;;;;;11.87;77.13;100164.94;5083587;28;20030;-74
2023/10/04 06:00:42;;;;;;;;;;;;;;;11.98;76.55;100163.47;5079601;28;20007;-74
2023/10/04 06:03:08;;;;;;;;;;;;;;;12.17;75.75;100165.97;5076486;28;19916;-74
2023/10/04 06:05:37;;;;;;;;;;;;;;;12.06;75.51;100159.88;5072307;28;19923;-74
2023/10/04 06:08:10;;;;;;;;;;;;;;;12.13;75.15;100165.00;5081983;28;19924;-73
2023/10/04 06:10:36;;;;;;;;;;;;;;;12.16;75.34;100171.94;5082963;28;19986;-73
2023/10/04 06:13:02;;;;;;;;;;;;;;;12.38;74.47;100168.13;5088007;28;19997;-72
2023/10/04 06:15:27;;;;;;;;;;;;;;;12.46;74.20;100158.91;5083815;28;20396;-73
2023/10/04 06:17:52;;;;;;;;;;;;;;;12.67;72.88;100161.03;5079913;28;19927;-72
2023/10/04 06:20:27;;;;;;;;;;;;;;;12.71;72.84;100173.25;5087211;28;19940;-71
2023/10/04 06:22:53;;;;;;;;;;;;;;;12.60;72.84;100166.31;5073911;28;19917;-71
2023/10/04 06:25:22;;;;;;;;;;;;;;;12.77;72.28;100157.84;5089745;28;19920;-71
2023/10/04 06:27:52;;;;;;;;;;;;;;;12.77;72.23;100165.47;5076366;28;20412;-73
2023/10/04 06:30:22;;;;;;;;;;;;;;;12.85;72.17;100158.19;5078343;28;20314;-72
2023/10/04 06:32:48;;;;;;;;;;;;;;;12.99;71.60;100164.41;5085951;28;20449;-71
2023/10/04 06:35:13;;;;;;;;;;;;;;;13.13;71.67;100158.59;5084355;28;19977;-71
2023/10/04 06:37:39;;;;;;;;;;;;;;;13.37;70.46;100159.16;5082953;28;19917;-71
2023/10/04 06:40:14;;;;;;;;;;;;;;;13.51;69.91;100156.97;5083860;28;19932;-72
2023/10/04 06:42:39;;;;;;;;;;;;;;;13.86;68.95;100159.59;5080442;28;20375;-72
2023/10/04 06:45:06;;;;;;;;;;;;;;;13.71;68.93;100154.56;5076187;28;19920;-70
2023/10/04 06:47:34;;;;;;;;;;;;;;;13.63;69.28;100159.06;5084736;28;19916;-71
2023/10/04 06:50:00;;;;;;;;;;;;;;;13.76;68.88;100158.00;5094397;28;19920;-71
2023/10/04 06:52:26;;;;;;;;;;;;;;;13.92;68.94;100159.41;5092172;28;20016;-71
2023/10/04 06:54:51;;;;;;;;;;;;;;;14.04;68.15;100151.84;5090678;28;20417;-71
2023/10/04 06:57:18;;;;;;;;;;;;;;;14.31;68.01;100154.47;5090604;28;19915;-71
2023/10/04 06:59:44;;;;;;;;;;;;;;;14.63;66.00;100148.41;5089693;28;20714;-71
2023/10/04 07:02:09;;;;;;;;;;;;;;;14.72;65.56;100152.00;5083762;28;19985;-71
2023/10/04 07:04:35;;;;;;;;;;;;;;;14.90;65.02;100154.59;5088293;28;20396;-71
2023/10/04 07:07:00;;;;;;;;;;;;;;;15.09;64.17;100148.47;5085877;28;20405;-71
2023/10/04 07:09:27;;;;;;;;;;;;;;;15.29;62.14;100146.72;5084436;28;19954;-69
2023/10/04 07:11:53;;;;;;;;;;;;;;;15.62;61.92;100145.78;5082669;28;19965;-69
2023/10/04 07:14:18;;;;;;;;;;;;;;;15.93;60.63;100140.75;5079038;28;20357;-69
2023/10/04 07:16:43;;;;;;;;;;;;;;;16.10;59.73;100140.47;5088273;28;19927;-71
2023/10/04 07:19:09;;;;;;;;;;;;;;;16.31;59.17;100147.94;5082470;28;19949;-71
2023/10/04 07:21:34;;;;;;;;;;;;;;;16.51;57.63;100142.44;5084203;28;19974;-69
2023/10/04 07:23:59;;;;;;;;;;;;;;;16.66;57.82;100144.50;5088509;28;19916;-68
2023/10/04 07:26:25;;;;;;;;;;;;;;;16.66;56.46;100138.84;5085070;28;20382;-69
2023/10/04 07:28:50;;;;;;;;;;;;;;;16.94;55.34;100146.47;5079178;28;19917;-69
2023/10/04 07:31:17;;;;;;;;;;;;;;;16.83;55.33;100136.88;5082354;28;19946;-69
2023/10/04 07:33:42;;;;;;;;;;;;;;;17.06;54.44;100139.13;5090865;28;19920;-69
2023/10/04 07:36:07;;;;;;;;;;;;;;;17.25;53.15;100142.06;5088663;28;19924;-70
2023/10/04 07:38:33;;;;;;;;;;;;;;;17.47;52.91;100139.75;5082437;28;20417;-69
2023/10/04 07:40:59;;;;;;;;;;;;;;;17.65;52.32;100140.19;5079714;28;19916;-69
2023/10/04 07:43:24;;;;;;;;;;;;;;;17.54;51.35;100137.13;5080075;28;20019;-69
2023/10/04 07:45:49;;;;;;;;;;;;;;;17.84;51.53;100144.28;5086339;28;20010;-69
2023/10/04 07:48:15;;;;;;;;;;;;;;;17.88;51.55;100145.19;5076769;28;19924;-70
2023/10/04 07:50:40;;;;;;;;;;;;;;;17.93;50.84;100141.25;5077312;28;19920;-70
2023/10/04 07:53:06;;;;;;;;;;;;;;;17.72;51.71;100138.75;5081159;28;19942;-69
2023/10/04 07:55:33;;;;;;;;;;;;;;;17.79;51.54;100139.72;5083027;28;19962;-70
2023/10/04 07:58:02;;;;;;;;;;;;;;;17.96;51.48;100132.84;5083521;28;19923;-70
2023/10/04 08:00:29;;;;;;;;;;;;;;;18.30;50.02;100129.56;5080148;28;20409;-70
2023/10/04 08:02:54;;;;;;;;;;;;;;;18.63;49.54;100128.22;5077132;28;20402;-69
2023/10/04 08:05:20;;;;;;;;;;;;;;;18.45;50.08;100132.69;5081121;28;20315;-70
2023/10/04 08:07:46;;;;;;;;;;;;;;;18.49;49.44;100128.72;5082730;28;20395;-69
2023/10/04 08:10:13;;;;;;;;;;;;;;;18.73;48.38;100123.13;5100360;28;20413;-69
2023/10/04 08:12:39;;;;;;;;;;;;;;;19.00;48.03;100132.56;5081309;28;19916;-70
2023/10/04 08:15:07;;;;;;;;;;;;;;;18.98;48.18;100128.47;5084762;28;19939;-70
2023/10/04 08:17:32;;;;;;;;;;;;;;;18.83;47.95;100119.69;5078926;28;20444;-70
2023/10/04 08:19:58;;;;;;;;;;;;;;;19.14;47.83;100123.50;5080874;28;19916;-70
2023/10/04 08:22:24;;;;;;;;;;;;;;;19.15;46.93;100113.00;5083142;28;20399;-70
2023/10/04 08:24:49;;;;;;;;;;;;;;;19.46;46.78;100116.75;5086221;28;20008;-70
2023/10/04 08:27:16;;;;;;;;;;;;;;;19.93;46.08;100109.00;5087388;28;19916;-70
2023/10/04 08:29:43;;;;;;;;;;;;;;;19.78;45.41;100100.22;5081599;28;19920;-70
2023/10/04 08:32:08;;;;;;;;;;;;;;;19.82;46.21;100099.47;5077840;28;19916;-70
2023/10/04 08:34:34;;;;;;;;;;;;;;;19.59;45.31;100091.84;5082348;28;20378;-74
2023/10/04 08:36:59;;;;;;;;;;;;;;;20.02;45.56;100098.13;5077714;28;19924;-74
2023/10/04 08:39:24;;;;;;;;;;;;;;;20.58;45.32;100084.22;5081045;28;19936;-74
2023/10/04 08:41:49;;;;;;;;;;;;;;;20.71;43.26;100086.78;5082404;28;19916;-74
2023/10/04 08:44:15;;;;;;;;;;;;;;;20.70;42.40;100088.00;5089246;28;19931;-74
2023/10/04 08:46:43;;;;;;;;;;;;;;;20.76;43.46;100078.72;5080816;28;20015;-74
2023/10/04 08:49:10;;;;;;;;;;;;;;;21.14;42.53;100077.91;5078312;28;19930;-73
2023/10/04 08:51:55;;;;;;;;;;;;;;;21.31;42.08;100076.41;5088837;28;19966;-74
2023/10/04 08:54:21;;;;;;;;;;;;;;;21.15;41.80;100068.97;5075863;28;19923;-74
2023/10/04 08:56:51;;;;;;;;;;;;;;;21.39;41.68;100069.56;5077747;28;19916;-72
2023/10/04 08:59:17;;;;;;;;;;;;;;;21.63;41.32;100066.47;5079608;28;20007;-75
2023/10/04 09:01:46;;;;;;;;;;;;;;;21.20;41.07;100062.13;5082545;28;20455;-75
2023/10/04 09:04:11;;;;;;;;;;;;;;;20.99;41.36;100063.56;5082826;28;19967;-75
2023/10/04 09:06:38;;;;;;;;;;;;;;;21.26;40.61;100068.25;5088244;28;19951;-77
2023/10/04 09:09:05;;;;;;;;;;;;;;;21.74;40.89;100062.53;5080940;28;19911;-73
2023/10/04 09:11:32;;;;;;;;;;;;;;;22.12;39.75;100059.44;5081874;28;19924;-73
2023/10/04 09:13:57;;;;;;;;;;;;;;;22.41;40.32;100058.72;5075706;28;20309;-73
2023/10/04 09:16:24;;;;;;;;;;;;;;;22.35;40.06;100054.66;5082139;28;19924;-73
2023/10/04 09:19:09;;;;;;;;;;;;;;;22.55;39.23;100050.25;5081074;28;20298;-73
2023/10/04 09:21:38;;;;;;;;;;;;;;;22.74;38.70;100039.72;5084209;28;19916;-73
2023/10/04 09:24:14;;;;;;;;;;;;;;;22.97;37.89;100041.38;5087354;28;19935;-75
2023/10/04 09:26:48;;;;;;;;;;;;;;;23.07;37.22;100040.56;5071926;28;19938;-73
2023/10/04 09:29:15;;;;;;;;;;;;;;;23.00;39.49;100037.69;5070964;28;19925;-73
2023/10/04 09:31:48;;;;;;;;;;;;;;;23.10;39.01;100036.88;5085231;28;20382;-72
2023/10/04 09:34:14;;;;;;;;;;;;;;;23.06;37.67;100030.38;5088616;28;19923;-73
2023/10/04 09:36:40;;;;;;;;;;;;;;;22.08;39.46;100029.31;5091079;28;19912;-73
2023/10/04 09:39:13;;;;;;;;;;;;;;;22.78;40.07;100026.25;5091118;28;19919;-73
2023/10/04 09:41:43;;;;;;;;;;;;;;;23.09;38.03;100029.56;5068366;28;19916;-73
2023/10/04 09:44:23;;;;;;;;;;;;;;;23.19;38.26;100024.25;5069317;28;19916;-73
2023/10/04 09:46:54;;;;;;;;;;;;;;;23.58;39.25;100026.25;5077102;28;20012;-72
2023/10/04 09:49:19;;;;;;;;;;;;;;;23.82;37.96;100021.69;5081944;28;20390;-75
2023/10/04 09:51:45;;;;;;;;;;;;;;;23.94;37.19;100009.00;5077238;28;19923;-74
2023/10/04 09:54:11;;;;;;;;;;;;;;;24.19;36.42;100008.13;5075905;28;19966;-76
2023/10/04 09:56:43;;;;;;;;;;;;;;;24.42;36.64;100006.75;5072493;28;19978;-74
2023/10/04 09:59:10;;;;;;;;;;;;;;;24.16;35.74;100006.09;5082943;28;20330;-74
2023/10/04 10:01:37;;;;;;;;;;;;;;;24.27;35.80;100010.94;5087277;28;19920;-73
2023/10/04 10:04:07;;;;;;;;;;;;;;;24.57;36.25;99998.09;5093417;28;19912;-74
2023/10/04 10:06:38;;;;;;;;;;;;;;;24.60;35.30;100000.94;5081467;28;20007;-74
2023/10/04 10:09:07;;;;;;;;;;;;;;;24.81;34.60;99996.31;5087997;28;19965;-75
2023/10/04 10:11:33;;;;;;;;;;;;;;;24.83;34.88;99988.13;5085127;28;19916;-76
2023/10/04 10:14:01;;;;;;;;;;;;;;;24.74;34.49;99988.59;5080397;28;20456;-74
2023/10/04 10:16:27;;;;;;;;;;;;;;;24.75;34.59;99987.34;5088278;28;19924;-74
2023/10/04 10:18:55;;;;;;;;;;;;;;;24.99;34.39;99986.78;5081893;28;19917;-76
2023/10/04 10:21:20;;;;;;;;;;;;;;;25.10;34.64;99976.03;5074032;28;19950;-75
2023/10/04 10:23:56;;;;;;;;;;;;;;;24.76;33.97;99977.53;5085507;28;19920;-75
2023/10/04 10:26:22;;;;;;;;;;;;;;;25.05;35.06;99979.38;5083068;28;20858;-75
2023/10/04 10:28:48;;;;;;;;;;;;;;;25.30;34.52;99966.88;5087638;28;19923;-75
2023/10/04 10:31:18;;;;;;;;;;;;;;;25.23;33.65;99964.88;5083277;28;19920;-75
2023/10/04 10:33:44;;;;;;;;;;;;;;;25.20;33.56;99965.72;5089221;28;19916;-75
2023/10/04 10:36:18;;;;;;;;;;;;;;;25.47;33.54;99962.97;5079857;28;20299;-75
2023/10/04 10:38:43;;;;;;;;;;;;;;;25.75;33.11;99960.25;5080829;28;19924;-75
2023/10/04 10:41:29;;;;;;;;;;;;;;;25.86;32.84;99966.66;5081366;28;19973;-75
2023/10/04 10:44:13;;;;;;;;;;;;;;;25.98;33.33;99961.59;5080905;28;19946;-75
2023/10/04 10:46:55;;;;;;;;;;;;;;;26.03;32.75;99949.63;5078555;28;19916;-75
2023/10/04 10:49:39;;;;;;;;;;;;;;;26.17;32.95;99954.38;5087879;28;20019;-75
2023/10/04 10:52:06;;;;;;;;;;;;;;;26.24;32.79;99942.81;5081800;28;19923;-70
2023/10/04 10:54:31;;;;;;;;;;;;;;;26.35;31.85;99940.59;5081200;28;19924;-70
2023/10/04 10:56:57;;;;;;;;;;;;;;;26.05;31.53;99944.28;5084286;28;20145;-70
2023/10/04 10:59:22;;;;;;;;;;;;;;;26.12;31.44;99932.72;5081823;28;19931;-70
2023/10/04 11:01:48;;;;;;;;;;;;;;;26.44;31.32;99922.06;5082449;28;20360;-70
2023/10/04 11:04:14;;;;;;;;;;;;;;;25.72;31.76;99921.00;5082988;28;19922;-70
2023/10/04 11:06:41;;;;;;;;;;;;;;;25.65;31.35;99927.63;5081542;28;19916;-70
2023/10/04 11:09:09;;;;;;;;;;;;;;;25.99;32.76;99928.84;5084776;28;19927;-70
2023/10/04 11:11:34;;;;;;;;;;;;;;;26.19;31.96;99914.66;5076322;28;19924;-70
2023/10/04 11:14:03;;;;;;;;;;;;;;;26.49;31.67;99913.78;5083515;28;19973;-71
2023/10/04 11:16:32;;;;;;;;;;;;;;;26.74;31.00;99912.53;5084325;28;20435;-70
2023/10/04 11:18:59;;;;;;;;;;;;;;;26.73;30.81;99910.13;5081514;28;20313;-70
2023/10/04 11:21:25;;;;;;;;;;;;;;;26.74;31.17;99912.53;5083367;28;20374;-72
2023/10/04 11:23:51;;;;;;;;;;;;;;;26.99;30.87;99917.03;5091490;28;19923;-73
2023/10/04 11:26:16;;;;;;;;;;;;;;;27.09;30.66;99920.97;5089777;28;20552;-71
2023/10/04 11:28:43;;;;;;;;;;;;;;;27.12;29.75;99905.75;5070857;28;20003;-72
2023/10/04 11:31:08;;;;;;;;;;;;;;;27.32;29.52;99908.63;5082772;28;19920;-71
2023/10/04 11:34:09;;;;;;;;;;;;;;;27.33;29.13;99904.50;5086876;28;19916;-69
2023/10/04 11:36:36;;;;;;;;;;;;;;;27.49;29.59;99905.84;5035760;28;20449;-72
2023/10/04 11:39:09;;;;;;;;;;;;;;;27.49;29.74;99908.69;5076288;28;19930;-72
2023/10/04 11:41:36;;;;;;;;;;;;;;;27.40;29.11;99908.50;5070045;28;19938;-70
2023/10/04 11:44:03;;;;;;;;;;;;;;;27.30;29.38;99916.06;5074925;28;19916;-67
2023/10/04 11:46:28;;;;;;;;;;;;;;;27.46;28.54;99904.69;5082216;28;19919;-68
2023/10/04 11:49:12;;;;;;;;;;;;;;;27.56;28.83;99899.16;5074952;28;19957;-70
2023/10/04 11:51:40;;;;;;;;;;;;;;;27.70;29.06;99898.06;5071886;28;19920;-69
2023/10/04 11:54:05;;;;;;;;;;;;;;;27.77;28.72;99891.34;5081619;28;19917;-69
2023/10/04 11:56:38;;;;;;;;;;;;;;;27.86;27.96;99889.47;5071952;28;20011;-68
2023/10/04 11:59:04;;;;;;;;;;;;;;;27.77;28.58;99879.84;5080245;28;19916;-68
2023/10/04 12:01:29;;;;;;;;;;;;;;;27.88;28.48;99887.00;5078404;28;19920;-68
2023/10/04 12:03:56;;;;;;;;;;;;;;;27.94;28.25;99869.22;5073981;28;19923;-68
2023/10/04 12:06:24;;;;;;;;;;;;;;;27.88;27.89;99871.78;5081022;28;19955;-68
2023/10/04 12:08:50;;;;;;;;;;;;;;;27.95;27.64;99867.94;5078920;28;19916;-68
2023/10/04 12:11:21;;;;;;;;;;;;;;;28.03;27.11;99869.41;5074649;28;20287;-67
2023/10/04 12:13:47;;;;;;;;;;;;;;;28.17;27.06;99863.34;5073708;28;19924;-68
2023/10/04 12:16:13;;;;;;;;;;;;;;;28.30;26.86;99860.59;5083268;28;19972;-68
2023/10/04 12:18:38;;;;;;;;;;;;;;;28.43;26.33;99857.78;5080783;28;20414;-67
2023/10/04 12:21:03;;;;;;;;;;;;;;;28.54;26.12;99859.56;5076244;28;20387;-68
2023/10/04 12:23:30;;;;;;;;;;;;;;;28.47;26.21;99851.94;5080561;28;19927;-68
2023/10/04 12:25:55;;;;;;;;;;;;;;;28.63;26.23;99847.44;5086706;28;19932;-69
2023/10/04 12:28:21;;;;;;;;;;;;;;;28.69;25.17;99849.31;5080441;28;20446;-68
2023/10/04 12:30:48;;;;;;;;;;;;;;;28.83;24.72;99844.44;5077508;28;20375;-67
2023/10/04 12:33:13;;;;;;;;;;;;;;;28.97;24.48;99849.84;5078861;28;19920;-67
2023/10/04 12:35:39;;;;;;;;;;;;;;;29.12;23.78;99837.91;5084832;28;19987;-68
2023/10/04 12:38:04;;;;;;;;;;;;;;;29.27;23.54;99838.31;5076512;28;19938;-67
2023/10/04 12:40:29;;;;;;;;;;;;;;;29.01;24.06;99838.19;5080131;28;20003;-69